createdAt,value
2019-05-10T00:01:24.478Z,98384.94
2019-05-10T00:04:15.281Z,98384.98
2019-05-10T00:07:05.969Z,98395.22
2019-05-10T00:09:38.428Z,98391.16
2019-05-10T00:12:26.369Z,98388.34
2019-05-10T00:14:59.326Z,98394.72
2019-05-10T00:17:33.574Z,98392.92
2019-05-10T00:20:07.484Z,98392.13
2019-05-10T00:22:41.299Z,98389.23
2019-05-10T00:25:15.400Z,98395.55
2019-05-10T00:27:48.581Z,98399.33
2019-05-10T00:30:22.427Z,98396.11
2019-05-10T00:32:56.617Z,98400.34
2019-05-10T00:35:30.827Z,98402.89
2019-05-10T00:38:04.536Z,98403.31
2019-05-10T00:40:38.404Z,98404.31
2019-05-10T00:43:12.792Z,98396.52
2019-05-10T00:45:46.874Z,98394.47
2019-05-10T00:48:20.583Z,98398.91
2019-05-10T00:50:53.863Z,98394.01
2019-05-10T00:53:28.117Z,98394.01
2019-05-10T00:56:01.886Z,98394.17
2019-05-10T00:58:36.111Z,98396.36
2019-05-10T01:01:09.949Z,98399.17
2019-05-10T01:03:43.758Z,98395.34
2019-05-10T01:06:17.990Z,98400.42
2019-05-10T01:08:51.370Z,98401.13
2019-05-10T01:11:25.579Z,98401.05
2019-05-10T01:13:58.751Z,98405.41
2019-05-10T01:16:32.863Z,98403.85
2019-05-10T01:19:06.702Z,98403.94
2019-05-10T01:21:40.095Z,98406.83
2019-05-10T01:24:14.278Z,98405.86
2019-05-10T01:26:47.974Z,98401.00
2019-05-10T01:29:21.587Z,98400.87
2019-05-10T01:31:55.907Z,98403.22
2019-05-10T01:34:29.659Z,98400.16
2019-05-10T01:37:03.553Z,98398.23
2019-05-10T01:39:37.668Z,98399.28
2019-05-10T01:42:11.976Z,98399.73
2019-05-10T01:44:46.195Z,98399.28
2019-05-10T01:47:19.874Z,98402.88
2019-05-10T01:49:53.067Z,98398.58
2019-05-10T01:52:26.704Z,98396.85
2019-05-10T01:54:59.987Z,98395.22
2019-05-10T01:57:33.566Z,98396.09
2019-05-10T02:00:05.727Z,98394.55
2019-05-10T02:02:39.950Z,98400.71
2019-05-10T02:05:15.056Z,98404.18
2019-05-10T02:07:48.827Z,98404.30
2019-05-10T02:10:22.929Z,98407.44
2019-05-10T02:12:57.047Z,98411.16
2019-05-10T02:15:30.822Z,98410.99
2019-05-10T02:18:04.087Z,98416.55
2019-05-10T02:20:37.848Z,98416.55
2019-05-10T02:23:11.527Z,98419.86
2019-05-10T02:25:45.322Z,98417.05
2019-05-10T02:28:18.616Z,98411.65
2019-05-10T02:30:52.432Z,98409.17
2019-05-10T02:33:26.788Z,98413.19
2019-05-10T02:36:00.528Z,98410.58
2019-05-10T02:38:34.157Z,98418.42
2019-05-10T02:41:07.900Z,98423.23
2019-05-10T02:43:41.571Z,98428.50
2019-05-10T02:46:15.343Z,98424.30
2019-05-10T02:48:48.563Z,98425.30
2019-05-10T02:51:22.577Z,98427.02
2019-05-10T02:53:56.286Z,98426.08
2019-05-10T02:56:32.522Z,98434.97
2019-05-10T02:59:07.100Z,98423.86
2019-05-10T03:01:46.444Z,98424.81
2019-05-10T03:04:22.283Z,98424.34
2019-05-10T03:07:04.131Z,98423.18
2019-05-10T03:09:38.065Z,98427.47
2019-05-10T03:12:25.512Z,98432.56
2019-05-10T03:15:00.885Z,98435.45
2019-05-10T03:17:34.184Z,98437.62
2019-05-10T03:20:08.655Z,98441.33
2019-05-10T03:22:46.337Z,98448.23
2019-05-10T03:25:21.509Z,98445.95
2019-05-10T03:27:55.839Z,98453.84
2019-05-10T03:30:30.023Z,98455.42
2019-05-10T03:33:02.790Z,98457.30
2019-05-10T03:35:36.104Z,98457.20
2019-05-10T03:38:09.829Z,98458.41
2019-05-10T03:40:43.914Z,98459.83
2019-05-10T03:43:18.139Z,98459.11
2019-05-10T03:45:52.372Z,98462.08
2019-05-10T03:48:26.590Z,98466.38
2019-05-10T03:51:00.806Z,98468.42
2019-05-10T03:53:35.039Z,98473.36
2019-05-10T03:56:08.764Z,98471.02
2019-05-10T03:58:42.941Z,98469.85
2019-05-10T04:01:16.719Z,98470.39
2019-05-10T04:03:50.368Z,98474.09
2019-05-10T04:06:24.334Z,98472.09
2019-05-10T04:08:58.477Z,98482.22
2019-05-10T04:11:31.622Z,98483.17
2019-05-10T04:14:04.837Z,98486.48
2019-05-10T04:16:39.078Z,98486.52
2019-05-10T04:19:12.416Z,98486.73
2019-05-10T04:21:45.694Z,98485.34
2019-05-10T04:24:19.987Z,98493.97
2019-05-10T04:26:53.716Z,98496.16
2019-05-10T04:29:27.900Z,98489.75
2019-05-10T04:32:02.196Z,98492.46
2019-05-10T04:34:35.623Z,98497.33
2019-05-10T04:37:09.432Z,98490.72
2019-05-10T04:39:43.645Z,98490.30
2019-05-10T04:42:17.457Z,98489.14
2019-05-10T04:44:53.414Z,98493.50
2019-05-10T04:47:26.802Z,98494.09
2019-05-10T04:50:00.094Z,98495.80
2019-05-10T04:52:35.359Z,98501.27
2019-05-10T04:55:08.637Z,98501.54
2019-05-10T04:57:50.659Z,98500.85
2019-05-10T05:00:18.265Z,98506.59
2019-05-10T05:02:51.698Z,98508.12
2019-05-10T05:05:25.918Z,98511.93
2019-05-10T05:08:00.639Z,98511.95
2019-05-10T05:10:34.720Z,98510.95
2019-05-10T05:13:08.556Z,98511.86
2019-05-10T05:15:42.647Z,98510.76
2019-05-10T05:18:16.986Z,98509.55
2019-05-10T05:20:51.079Z,98513.40
2019-05-10T05:23:25.088Z,98518.49
2019-05-10T05:25:58.480Z,98513.73
2019-05-10T05:28:32.695Z,98512.14
2019-05-10T05:31:06.003Z,98512.55
2019-05-10T05:33:40.112Z,98513.58
2019-05-10T05:36:12.421Z,98516.88
2019-05-10T05:38:47.123Z,98517.77
2019-05-10T05:41:20.242Z,98516.40
2019-05-10T05:43:53.163Z,98518.25
2019-05-10T05:46:26.473Z,98525.48
2019-05-10T05:48:59.719Z,98527.67
2019-05-10T05:51:32.050Z,98530.52
2019-05-10T05:54:04.605Z,98533.47
2019-05-10T05:56:36.657Z,98539.73
2019-05-10T05:59:09.131Z,98541.71
2019-05-10T06:01:41.437Z,98545.32
2019-05-10T06:04:15.130Z,98542.73
2019-05-10T06:06:48.418Z,98542.39
2019-05-10T06:09:22.924Z,98540.09
2019-05-10T06:11:56.711Z,98542.36
2019-05-10T06:14:31.081Z,98540.73
2019-05-10T06:17:04.958Z,98543.95
2019-05-10T06:19:38.754Z,98549.75
2019-05-10T06:22:12.145Z,98549.95
2019-05-10T06:24:46.605Z,98554.11
2019-05-10T06:27:21.669Z,98561.66
2019-05-10T06:29:54.495Z,98561.28
2019-05-10T06:32:29.099Z,98561.59
2019-05-10T06:35:02.224Z,98570.36
2019-05-10T06:37:36.387Z,98574.59
2019-05-10T06:40:10.717Z,98575.31
2019-05-10T06:42:42.696Z,98573.95
2019-05-10T06:45:16.405Z,98578.27
2019-05-10T06:47:52.897Z,98581.30
2019-05-10T06:50:29.860Z,98576.52
2019-05-10T06:53:00.538Z,98577.02
2019-05-10T06:55:33.003Z,98579.08
2019-05-10T06:58:06.368Z,98578.57
2019-05-10T07:00:44.860Z,98580.83
2019-05-10T07:03:14.805Z,98579.73
2019-05-10T07:05:47.388Z,98579.32
2019-05-10T07:08:20.511Z,98581.50
2019-05-10T07:10:54.578Z,98580.91
2019-05-10T07:13:28.838Z,98581.20
2019-05-10T07:16:02.576Z,98579.17
2019-05-10T07:18:36.781Z,98585.41
2019-05-10T07:21:10.578Z,98584.66
2019-05-10T07:23:46.437Z,98588.59
2019-05-10T07:26:24.315Z,98587.79
2019-05-10T07:28:57.420Z,98583.37
2019-05-10T07:31:29.681Z,98582.23
2019-05-10T07:34:02.995Z,98579.83
2019-05-10T07:36:36.356Z,98576.62
2019-05-10T07:39:10.768Z,98576.48
2019-05-10T07:41:43.078Z,98585.87
2019-05-10T07:44:16.658Z,98586.44
2019-05-10T07:46:54.257Z,98578.48
2019-05-10T07:49:30.351Z,98587.16
2019-05-10T07:52:03.074Z,98587.02
2019-05-10T07:54:37.701Z,98585.94
2019-05-10T07:57:11.760Z,98587.84
2019-05-10T07:59:50.830Z,98587.48
2019-05-10T08:02:19.150Z,98586.29
2019-05-10T08:04:53.643Z,98592.30
2019-05-10T08:07:29.246Z,98596.47
2019-05-10T08:10:04.458Z,98590.36
2019-05-10T08:12:35.198Z,98595.86
2019-05-10T08:15:10.459Z,98597.91
2019-05-10T08:17:45.648Z,98605.46
2019-05-10T08:20:31.155Z,98604.45
2019-05-10T08:22:53.139Z,98600.11
2019-05-10T08:25:29.020Z,98602.09
2019-05-10T08:28:03.266Z,98599.75
2019-05-10T08:30:51.348Z,98607.59
2019-05-10T08:33:14.980Z,98613.91
2019-05-10T08:35:52.521Z,98616.77
2019-05-10T08:38:22.055Z,98613.25
2019-05-10T08:40:56.503Z,98619.56
2019-05-10T08:43:38.660Z,98614.56
2019-05-10T08:46:06.555Z,98615.05
2019-05-10T08:48:46.648Z,98614.86
2019-05-10T08:51:14.977Z,98619.42
2019-05-10T08:53:55.872Z,98622.00
2019-05-10T08:56:24.463Z,98618.89
2019-05-10T08:58:58.270Z,98615.02
2019-05-10T09:01:38.753Z,98619.94
2019-05-10T09:04:10.849Z,98618.48
2019-05-10T09:06:47.403Z,98622.98
2019-05-10T09:09:19.232Z,98614.47
2019-05-10T09:11:57.750Z,98622.16
2019-05-10T09:14:28.965Z,98626.45
2019-05-10T09:17:04.400Z,98623.70
2019-05-10T09:19:41.919Z,98622.80
2019-05-10T09:22:14.352Z,98619.14
2019-05-10T09:24:48.831Z,98627.08
2019-05-10T09:27:23.456Z,98625.78
2019-05-10T09:29:56.750Z,98630.12
2019-05-10T09:32:33.355Z,98622.59
2019-05-10T09:35:09.210Z,98629.42
2019-05-10T09:37:42.182Z,98630.75
2019-05-10T09:40:16.247Z,98630.66
2019-05-10T09:42:52.302Z,98628.83
2019-05-10T09:45:26.213Z,98628.92
2019-05-10T09:48:02.535Z,98633.34
2019-05-10T09:50:44.291Z,98630.30
2019-05-10T09:53:15.581Z,98632.17
2019-05-10T09:55:55.325Z,98627.55
2019-05-10T09:58:23.068Z,98622.83
2019-05-10T10:01:11.070Z,98623.48
2019-05-10T10:03:39.853Z,98624.23
2019-05-10T10:06:11.159Z,98633.12
2019-05-10T10:08:51.192Z,98631.23
2019-05-10T10:11:19.903Z,98632.52
2019-05-10T10:13:58.964Z,98630.31
2019-05-10T10:16:30.733Z,98633.30
2019-05-10T10:19:07.206Z,98632.84
2019-05-10T10:21:40.591Z,98633.12
2019-05-10T10:24:17.827Z,98636.04
2019-05-10T10:26:53.964Z,98636.53
2019-05-10T10:29:28.743Z,98638.27
2019-05-10T10:32:02.408Z,98642.72
2019-05-10T10:34:40.935Z,98648.17
2019-05-10T10:37:14.578Z,98654.00
2019-05-10T10:39:47.685Z,98651.05
2019-05-10T10:42:21.186Z,98654.83
2019-05-10T10:44:56.690Z,98660.91
2019-05-10T10:47:32.096Z,98657.75
2019-05-10T10:50:13.196Z,98660.90
2019-05-10T10:52:44.206Z,98659.55
2019-05-10T10:55:18.679Z,98658.56
2019-05-10T10:57:53.184Z,98665.52
2019-05-10T11:00:38.822Z,98670.09
2019-05-10T11:03:12.750Z,98677.32
2019-05-10T11:05:46.554Z,98676.86
2019-05-10T11:08:20.391Z,98667.03
2019-05-10T11:10:54.568Z,98669.52
2019-05-10T11:13:41.686Z,98669.80
2019-05-10T11:16:09.869Z,98672.95
2019-05-10T11:18:37.963Z,98676.31
2019-05-10T11:21:11.737Z,98675.66
2019-05-10T11:23:45.198Z,98671.26
2019-05-10T11:26:21.616Z,98668.68
2019-05-10T11:28:55.332Z,98673.06
2019-05-10T11:31:31.155Z,98677.79
2019-05-10T11:34:06.245Z,98682.22
2019-05-10T11:36:45.265Z,98684.55
2019-05-10T11:39:26.000Z,98678.88
2019-05-10T11:42:00.973Z,98691.92
2019-05-10T11:44:26.855Z,98689.70
2019-05-10T11:47:01.494Z,98694.02
2019-05-10T11:49:35.619Z,98693.41
2019-05-10T11:52:12.902Z,98693.06
2019-05-10T11:54:45.395Z,98698.23
2019-05-10T11:57:21.766Z,98684.30
2019-05-10T11:59:54.295Z,98694.38
2019-05-10T12:02:37.406Z,98689.81
2019-05-10T12:05:11.012Z,98688.28
2019-05-10T12:07:45.500Z,98681.98
2019-05-10T12:13:04.835Z,98688.24
2019-05-10T12:15:25.337Z,98676.98
2019-05-10T12:17:59.621Z,98675.93
2019-05-10T12:20:54.371Z,98676.62
2019-05-10T12:23:13.130Z,98679.92
2019-05-10T12:25:59.283Z,98684.48
2019-05-10T12:26:27.548Z,98686.19
2019-05-10T12:28:24.490Z,98685.84
2019-05-10T12:30:52.061Z,98683.45
2019-05-10T12:33:27.526Z,98682.97
2019-05-10T12:35:59.580Z,98690.09
2019-05-10T12:38:35.846Z,98684.88
2019-05-10T12:41:06.698Z,98689.73
2019-05-10T12:43:43.160Z,98687.29
2019-05-10T12:46:14.595Z,98691.28
2019-05-10T12:48:46.993Z,98691.84
2019-05-10T12:51:21.151Z,98697.87
2019-05-10T12:53:54.275Z,98702.84
2019-05-10T12:56:27.191Z,98702.70
2019-05-10T12:58:59.675Z,98705.83
2019-05-10T13:01:33.289Z,98703.59
2019-05-10T13:04:13.400Z,98703.04
2019-05-10T13:06:40.886Z,98703.60
2019-05-10T13:09:14.482Z,98705.92
2019-05-10T13:11:47.430Z,98721.83
2019-05-10T13:14:20.343Z,98720.51
2019-05-10T13:16:53.363Z,98727.31
2019-05-10T13:19:26.409Z,98738.19
2019-05-10T13:22:00.829Z,98743.50
2019-05-10T13:24:33.524Z,98748.64
2019-05-10T13:27:06.413Z,98757.14
2019-05-10T13:29:40.559Z,98760.46
2019-05-10T13:32:15.001Z,98757.55
2019-05-10T13:34:48.326Z,98758.67
2019-05-10T13:37:24.776Z,98754.73
2019-05-10T13:39:58.330Z,98755.61
2019-05-10T13:42:30.878Z,98755.17
2019-05-10T13:45:05.716Z,98755.23
2019-05-10T13:47:38.666Z,98757.04
2019-05-10T13:50:12.226Z,98748.31
2019-05-10T13:52:45.685Z,98751.02
2019-05-10T13:55:18.131Z,98745.98
2019-05-10T13:57:53.999Z,98745.65
2019-05-10T14:00:33.155Z,98744.94
2019-05-10T14:03:04.852Z,98740.52
2019-05-10T14:05:35.873Z,98737.56
2019-05-10T14:08:09.312Z,98735.04
2019-05-10T14:10:42.614Z,98735.95
2019-05-10T14:13:16.960Z,98735.02
2019-05-10T14:15:50.228Z,98733.93
2019-05-10T14:18:23.022Z,98731.43
2019-05-10T14:20:56.801Z,98736.84
2019-05-10T14:23:35.030Z,98736.45
2019-05-10T14:26:09.234Z,98746.85
2019-05-10T14:28:40.371Z,98751.28
2019-05-10T14:31:13.920Z,98750.69
2019-05-10T14:33:49.592Z,98754.12
2019-05-10T14:36:20.099Z,98757.72
2019-05-10T14:38:56.057Z,98761.25
2019-05-10T14:41:27.771Z,98762.44
2019-05-10T14:44:01.753Z,98765.95
2019-05-10T14:46:35.883Z,98764.30
2019-05-10T14:49:11.483Z,98763.70
2019-05-10T14:51:58.552Z,98757.70
2019-05-10T14:54:22.025Z,98772.09
2019-05-10T14:56:56.307Z,98765.81
2019-05-10T14:59:30.704Z,98781.05
2019-05-10T15:02:04.152Z,98772.70
2019-05-10T15:04:47.130Z,98774.16
2019-05-10T15:07:16.410Z,98768.65
2019-05-10T15:09:54.203Z,98778.62
2019-05-10T15:12:25.081Z,98781.18
2019-05-10T15:15:00.136Z,98777.09
2019-05-10T15:17:33.800Z,98782.86
2019-05-10T15:20:07.521Z,98782.87
2019-05-10T15:22:41.428Z,98789.80
2019-05-10T15:25:15.233Z,98798.23
2019-05-10T15:27:49.112Z,98797.31
2019-05-10T15:30:22.845Z,98799.20
2019-05-10T15:32:57.816Z,98801.89
2019-05-10T15:35:32.076Z,98798.68
2019-05-10T15:38:05.972Z,98801.52
2019-05-10T15:40:44.359Z,98800.06
2019-05-10T15:43:17.267Z,98816.62
2019-05-10T15:45:54.757Z,98818.48
2019-05-10T15:48:27.453Z,98823.56
2019-05-10T15:51:01.187Z,98831.30
2019-05-10T15:53:36.053Z,98839.58
2019-05-10T15:56:10.337Z,98838.59
2019-05-10T15:58:44.675Z,98862.48
2019-05-10T16:01:26.199Z,98848.50
2019-05-10T16:03:53.908Z,98861.81
2019-05-10T16:06:32.590Z,98867.16
2019-05-10T16:09:16.379Z,98872.55
2019-05-10T16:11:38.533Z,98885.67
2019-05-10T16:14:12.867Z,98876.58
2019-05-10T16:16:48.695Z,98881.73
2019-05-10T16:19:22.648Z,98884.96
2019-05-10T16:21:58.250Z,98882.77
2019-05-10T16:24:32.826Z,98886.64
2019-05-10T16:27:06.661Z,98886.94
2019-05-10T16:29:41.435Z,98892.85
2019-05-10T16:32:16.428Z,98901.24
2019-05-10T16:34:50.201Z,98898.27
2019-05-10T16:37:25.144Z,98901.78
2019-05-10T16:39:59.651Z,98906.30
2019-05-10T16:42:34.527Z,98904.85
2019-05-10T16:45:10.890Z,98903.09
2019-05-10T16:47:43.781Z,98908.16
2019-05-10T16:50:17.256Z,98898.09
2019-05-10T16:52:51.170Z,98908.80
2019-05-10T16:55:23.817Z,98909.70
2019-05-10T16:57:57.162Z,98917.94
2019-05-10T17:00:31.525Z,98912.16
2019-05-10T17:03:05.366Z,98915.58
2019-05-10T17:05:52.326Z,98919.21
2019-05-10T17:08:12.842Z,98917.38
2019-05-10T17:10:46.754Z,98926.97
2019-05-10T17:13:19.789Z,98925.39
2019-05-10T17:15:52.690Z,98924.23
2019-05-10T17:18:25.838Z,98928.62
2019-05-10T17:21:18.744Z,98928.56
2019-05-10T17:23:41.637Z,98935.59
2019-05-10T17:26:14.599Z,98946.65
2019-05-10T17:28:47.151Z,98945.03
2019-05-10T17:31:20.688Z,98940.35
2019-05-10T17:33:53.659Z,98946.80
2019-05-10T17:36:26.362Z,98949.95
2019-05-10T17:38:59.261Z,98948.80
2019-05-10T17:41:39.173Z,98954.30
2019-05-10T17:44:17.515Z,98952.20
2019-05-10T17:46:57.438Z,98959.64
2019-05-10T17:49:30.872Z,98959.83
2019-05-10T17:52:03.333Z,98968.34
2019-05-10T17:54:39.295Z,98970.47
2019-05-10T17:57:16.739Z,98975.27
2019-05-10T17:59:52.245Z,98977.22
2019-05-10T18:02:21.776Z,98981.66
2019-05-10T18:04:54.375Z,98985.93
2019-05-10T18:07:27.071Z,98985.76
2019-05-10T18:09:59.126Z,98989.09
2019-05-10T18:12:31.791Z,98991.23
2019-05-10T18:15:04.990Z,98992.95
2019-05-10T18:17:39.384Z,98996.73
2019-05-10T18:20:13.068Z,98998.16
2019-05-10T18:22:46.423Z,98997.17
2019-05-10T18:25:22.352Z,98998.97
2019-05-10T18:27:56.615Z,98999.25
2019-05-10T18:30:30.082Z,99000.67
2019-05-10T18:33:06.728Z,98999.52
2019-05-10T18:35:37.619Z,99000.43
2019-05-10T18:38:10.521Z,99001.77
2019-05-10T18:40:43.942Z,99007.27
2019-05-10T18:43:17.447Z,99007.17
2019-05-10T18:45:49.974Z,99008.77
2019-05-10T18:48:22.847Z,99011.06
2019-05-10T18:50:56.352Z,99013.47
2019-05-10T18:53:29.840Z,99014.21
2019-05-10T18:56:04.102Z,99024.22
2019-05-10T18:58:40.731Z,99029.47
2019-05-10T19:01:16.783Z,99031.25
2019-05-10T19:03:51.387Z,99034.77
2019-05-10T19:06:24.912Z,99040.52
2019-05-10T19:08:59.171Z,99046.81
2019-05-10T19:11:33.265Z,99048.42
2019-05-10T19:14:06.579Z,99053.94
2019-05-10T19:16:39.141Z,99062.02
2019-05-10T19:19:11.135Z,99062.34
2019-05-10T19:21:43.090Z,99066.33
2019-05-10T19:24:16.175Z,99070.45
2019-05-10T19:26:49.035Z,99073.31
2019-05-10T19:29:22.551Z,99075.83
2019-05-10T19:31:57.920Z,99079.33
2019-05-10T19:34:36.785Z,99086.72
2019-05-10T19:37:26.678Z,99087.81
2019-05-10T19:39:46.134Z,99089.17
2019-05-10T19:42:18.564Z,99094.98
2019-05-10T19:44:51.923Z,99096.61
2019-05-10T19:47:23.913Z,99097.45
2019-05-10T19:49:56.810Z,99093.91
2019-05-10T19:52:29.191Z,99100.02
2019-05-10T19:55:02.260Z,99092.66
2019-05-10T19:57:35.750Z,99096.25
2019-05-10T20:00:08.177Z,99095.61
2019-05-10T20:02:41.391Z,99094.16
2019-05-10T20:05:14.394Z,99099.43
2019-05-10T20:07:47.273Z,99100.01
2019-05-10T20:10:21.398Z,99100.58
2019-05-10T20:13:16.062Z,99106.95
2019-05-10T20:15:55.533Z,99102.88
2019-05-10T20:18:34.551Z,99104.77
2019-05-10T20:21:10.966Z,99107.34
2019-05-10T20:23:47.756Z,99101.86
2019-05-10T20:26:27.927Z,99107.72
2019-05-10T20:29:03.408Z,99108.69
2019-05-10T20:31:36.837Z,99109.96
2019-05-10T20:34:11.170Z,99109.91
2019-05-10T20:36:45.308Z,99104.16
2019-05-10T20:39:52.891Z,99109.84
2019-05-10T20:42:28.374Z,99108.27
2019-05-10T20:45:07.691Z,99106.41
2019-05-10T20:47:37.915Z,99103.03
2019-05-10T20:50:13.756Z,99107.22
2019-05-10T20:52:47.081Z,99107.88
2019-05-10T20:55:21.014Z,99106.15
2019-05-10T20:57:57.028Z,99101.37
2019-05-10T21:00:30.120Z,99100.97
2019-05-10T21:03:03.917Z,99099.49
2019-05-10T21:05:38.200Z,99104.77
2019-05-10T21:08:16.846Z,99106.16
2019-05-10T21:10:50.134Z,99105.16
2019-05-10T21:14:18.345Z,99113.89
2019-05-10T21:16:59.033Z,99117.66
2019-05-10T21:19:32.587Z,99123.27
2019-05-10T21:22:06.737Z,99128.88
2019-05-10T21:24:43.624Z,99130.95
2019-05-10T21:27:19.628Z,99130.78
2019-05-10T21:29:53.185Z,99133.10
2019-05-10T21:32:27.441Z,99131.17
2019-05-10T21:35:00.037Z,99138.53
2019-05-10T21:37:38.384Z,99131.25
2019-05-10T21:40:12.701Z,99137.44
2019-05-10T21:42:48.086Z,99140.56
2019-05-10T21:45:22.314Z,99147.61
2019-05-10T21:47:56.399Z,99151.88
2019-05-10T21:50:32.530Z,99148.74
2019-05-10T21:53:08.877Z,99149.33
2019-05-10T21:55:43.737Z,99146.25
2019-05-10T21:58:19.868Z,99145.58
2019-05-10T22:01:12.292Z,99148.98
2019-05-10T22:03:46.145Z,99146.46
2019-05-10T22:06:25.354Z,99152.79
2019-05-10T22:08:59.064Z,99149.05
2019-05-10T22:11:32.987Z,99149.27
2019-05-10T22:14:07.537Z,99147.86
2019-05-10T22:16:41.058Z,99147.83
2019-05-10T22:19:15.720Z,99144.42
2019-05-10T22:21:50.005Z,99148.57
2019-05-10T22:24:24.834Z,99146.06
2019-05-10T22:26:59.684Z,99143.06
2019-05-10T22:29:33.610Z,99148.42
2019-05-10T22:32:07.402Z,99146.26
2019-05-10T22:34:46.320Z,99152.82
2019-05-10T22:37:20.892Z,99149.85
2019-05-10T22:40:13.716Z,99148.52
2019-05-10T22:42:48.993Z,99149.67
2019-05-10T22:45:25.685Z,99151.98
2019-05-10T22:48:01.870Z,99151.27
2019-05-10T22:50:36.993Z,99150.06
2019-05-10T22:53:10.582Z,99152.58
2019-05-10T22:55:44.973Z,99152.20
2019-05-10T22:58:20.359Z,99153.56
2019-05-10T23:01:00.332Z,99154.20
2019-05-10T23:03:35.253Z,99156.63
2019-05-10T23:06:08.993Z,99159.20
2019-05-10T23:08:44.069Z,99164.23
2019-05-10T23:11:19.416Z,99159.66
2019-05-10T23:13:58.113Z,99160.61
2019-05-10T23:16:33.430Z,99161.34
2019-05-10T23:19:07.749Z,99162.31
2019-05-10T23:21:41.118Z,99161.44
2019-05-10T23:24:19.392Z,99159.75
2019-05-10T23:26:53.410Z,99163.42
2019-05-10T23:29:26.985Z,99161.15
2019-05-10T23:32:01.148Z,99160.56
2019-05-10T23:34:34.774Z,99159.34
2019-05-10T23:37:08.999Z,99159.96
2019-05-10T23:39:44.440Z,99152.16
2019-05-10T23:42:18.252Z,99155.64
2019-05-10T23:44:51.623Z,99157.55
2019-05-10T23:47:25.936Z,99156.28
2019-05-10T23:49:59.759Z,99163.23
2019-05-10T23:52:33.598Z,99161.21
2019-05-10T23:55:08.921Z,99154.25
2019-05-10T23:57:43.543Z,99159.95
